Time;durP1;ratioP1;P1;durP2;ratioP2;P2;SDS_P1;SDS_P2;PMS_P1;PMS_P2;Temp;Humidity;BMP_temperature;BMP_pressure;BME280_temperature;BME280_humidity;BME280_pressure;Samples;Min_cycle;Max_cycle;Signal;HPM_P1;HPM_P2
2022/09/02 00:01:42;;;;;;;7.90;3.17;;;22.90;62.20;;;;;;5073806;28;20562;-57
2022/09/02 00:04:12;;;;;;;5.63;3.17;;;22.90;62.20;;;;;;5056391;28;20058;-55
2022/09/02 00:06:39;;;;;;;4.30;3.17;;;22.90;62.10;;;;;;5057194;28;20024;-58
2022/09/02 00:09:06;;;;;;;;;;;22.90;62.00;;;;;;5056674;28;20036;-58
2022/09/02 00:11:33;;;;;;;8.32;3.30;;;22.90;62.20;;;;;;5055951;28;19908;-55
2022/09/02 00:14:02;;;;;;;6.20;2.80;;;22.90;62.10;;;;;;5073958;28;20056;-56
2022/09/02 00:16:28;;;;;;;4.97;3.33;;;22.90;62.00;;;;;;5073499;28;20028;-58
2022/09/02 00:18:55;;;;;;;6.07;3.40;;;22.90;62.20;;;;;;5074001;28;20024;-58
2022/09/02 00:21:21;;;;;;;;;;;22.90;62.30;;;;;;5074448;28;20089;-59
2022/09/02 00:23:48;;;;;;;7.70;3.45;;;22.90;62.30;;;;;;5074228;28;19967;-58
2022/09/02 00:26:13;;;;;;;4.95;3.40;;;22.80;62.20;;;;;;5073957;28;20039;-57
2022/09/02 00:28:40;;;;;;;10.00;3.83;;;22.80;62.30;;;;;;5073475;28;20392;-58
2022/09/02 00:31:06;;;;;;;;;;;22.80;62.60;;;;;;5074038;28;20039;-58
2022/09/02 00:33:32;;;;;;;4.80;3.40;;;22.70;62.60;;;;;;5073993;28;19904;-54
2022/09/02 00:36:02;;;;;;;9.68;3.70;;;22.70;62.40;;;;;;5073817;28;20021;-58
2022/09/02 00:38:32;;;;;;;7.03;3.22;;;22.60;65.30;;;;;;5055749;28;20056;-58
2022/09/02 00:40:58;;;;;;;6.13;3.63;;;;;;;;;;5073813;28;20104;-57
2022/09/02 00:43:49;;;;;;;6.23;3.30;;;22.60;62.50;;;;;;5073643;28;20471;-59
2022/09/02 00:46:17;;;;;;;5.88;2.97;;;22.70;62.80;;;;;;5073673;28;20505;-59
2022/09/02 00:49:04;;;;;;;7.70;3.63;;;22.70;62.50;;;;;;5053683;28;20036;-57
2022/09/02 00:51:37;;;;;;;5.05;3.35;;;22.70;62.50;;;;;;5053576;28;20033;-57
2022/09/02 00:54:05;;;;;;;6.80;3.17;;;22.70;62.30;;;;;;5053696;28;20025;-57
2022/09/02 00:56:31;;;;;;;5.65;3.95;;;22.80;62.30;;;;;;5053432;28;20025;-56
2022/09/02 00:58:58;;;;;;;7.50;3.73;;;;;;;;;;5053428;28;20024;-54
2022/09/02 01:01:24;;;;;;;;;;;;;;;;;;5053898;28;20021;-58
2022/09/02 01:03:50;;;;;;;8.75;3.45;;;;;;;;;;5053406;28;19904;-58
2022/09/02 01:06:19;;;;;;;8.05;4.20;;;;;;;;;;5035596;28;20029;-56
2022/09/02 01:08:47;;;;;;;8.50;3.72;;;;;;;;;;5053123;28;20028;-58
2022/09/02 01:11:13;;;;;;;5.30;3.60;;;;;;;;;;5053072;28;20369;-58
2022/09/02 01:13:40;;;;;;;8.90;4.40;;;;;;;;;;5035384;28;20603;-58
2022/09/02 01:16:07;;;;;;;9.02;4.65;;;;;;;;;;5053032;28;20029;-57
2022/09/02 01:18:35;;;;;;;10.50;4.20;;;23.00;65.60;;;;;;5053073;28;20099;-58
2022/09/02 01:21:05;;;;;;;6.50;4.35;;;22.70;62.50;;;;;;5052862;28;20076;-57
2022/09/02 01:23:31;;;;;;;7.10;4.15;;;;;;;;;;5040654;28;20494;-58
2022/09/02 01:25:57;;;;;;;8.38;4.22;;;;;;;;;;5072989;28;20035;-57
2022/09/02 01:28:23;;;;;;;8.35;4.68;;;;;;;;;;5054901;28;20031;-53
2022/09/02 01:30:51;;;;;;;6.65;4.55;;;;;;;;;;5072330;28;20028;-57
2022/09/02 01:33:18;;;;;;;10.27;4.72;;;;;;;;;;5071390;28;20516;-56
2022/09/02 01:35:45;;;;;;;7.03;3.97;;;;;;;;;;5072245;28;20039;-56
2022/09/02 01:38:11;;;;;;;9.48;4.05;;;;;;;;;;5054769;28;20021;-57
2022/09/02 01:40:38;;;;;;;9.60;4.00;;;;;;;;;;5071846;28;20039;-58
2022/09/02 01:43:10;;;;;;;8.32;4.78;;;;;;;;;;5054732;28;20304;-58
2022/09/02 01:45:37;;;;;;;8.02;4.38;;;;;;;;;;5071886;28;20032;-57
2022/09/02 01:48:03;;;;;;;;;;;;;;;;;;5054932;28;20024;-58
2022/09/02 01:50:30;;;;;;;7.07;4.80;;;;;;;;;;5071356;28;20263;-58
2022/09/02 01:52:57;;;;;;;7.70;4.60;;;;;;;;;;5072133;28;20056;-57
2022/09/02 01:55:23;;;;;;;6.35;4.60;;;;;;;;;;5054346;28;20028;-58
2022/09/02 01:57:49;;;;;;;10.17;5.00;;;;;;;;;;5072387;28;20056;-57
2022/09/02 02:00:15;;;;;;;10.40;4.37;;;;;;;;;;5072150;28;20082;-57
2022/09/02 02:02:41;;;;;;;6.38;4.80;;;;;;;;;;5054115;28;20142;-56
2022/09/02 02:05:07;;;;;;;13.17;4.60;;;;;;;;;;5072188;28;20020;-57
2022/09/02 02:07:34;;;;;;;6.07;4.97;;;;;;;;;;5072113;28;20589;-57
2022/09/02 02:10:00;;;;;;;6.97;4.43;;;;;;;;;;5052326;28;20483;-57
2022/09/02 02:12:26;;;;;;;7.97;4.47;;;;;;;;;;5051904;28;20107;-56
2022/09/02 02:14:52;;;;;;;7.57;4.50;;;;;;;;;;5051966;28;20021;-59
2022/09/02 02:17:18;;;;;;;11.15;4.95;;;;;;;;;;5052091;28;20036;-57
2022/09/02 02:19:44;;;;;;;8.27;4.73;;;22.60;65.00;;;;;;5051987;28;20025;-57
2022/09/02 02:22:10;;;;;;;5.43;4.00;;;22.10;64.10;;;;;;5051766;28;20024;-58
2022/09/02 02:24:36;;;;;;;8.98;4.88;;;22.10;64.20;;;;;;5034089;28;20025;-58
2022/09/02 02:27:02;;;;;;;6.07;4.10;;;22.10;64.40;;;;;;5034047;28;20020;-56
2022/09/02 02:29:28;;;;;;;8.13;4.60;;;;;;;;;;5051700;28;20118;-58
2022/09/02 02:31:54;;;;;;;8.43;4.28;;;;;;;;;;5051641;28;20115;-57
2022/09/02 02:34:21;;;;;;;10.10;5.10;;;22.10;64.30;;;;;;5051796;28;20032;-58
2022/09/02 02:36:46;;;;;;;5.70;5.10;;;22.00;64.60;;;;;;5051620;28;20051;-57
2022/09/02 02:39:12;;;;;;;8.80;5.38;;;22.00;64.80;;;;;;5096536;22;20048;-62
2022/09/02 02:41:39;;;;;;;6.28;4.78;;;21.90;64.70;;;;;;5071444;28;20025;-62
2022/09/02 02:44:05;;;;;;;10.68;5.60;;;21.90;64.70;;;;;;5053198;28;20027;-61
2022/09/02 02:46:32;;;;;;;12.38;5.55;;;21.90;64.80;;;;;;5069918;28;20024;-62
2022/09/02 02:49:02;;;;;;;6.03;4.50;;;21.90;64.70;;;;;;5070974;28;20032;-64
2022/09/02 02:51:28;;;;;;;9.23;4.93;;;21.90;65.00;;;;;;5051470;28;20031;-63
2022/09/02 02:53:53;;;;;;;7.28;4.95;;;21.90;65.40;;;;;;5071148;28;20032;-64
2022/09/02 02:56:19;;;;;;;9.15;4.72;;;21.80;64.80;;;;;;5053409;28;20024;-64
2022/09/02 02:58:45;;;;;;;6.87;5.13;;;21.90;66.30;;;;;;5071214;28;20024;-63
2022/09/02 03:01:10;;;;;;;9.95;5.38;;;21.80;64.90;;;;;;5070753;28;20435;-64
2022/09/02 03:03:36;;;;;;;5.43;4.65;;;21.80;65.00;;;;;;5071286;28;20028;-64
2022/09/02 03:06:02;;;;;;;6.07;4.68;;;21.80;65.10;;;;;;5070808;28;20047;-63
2022/09/02 03:08:28;;;;;;;6.82;5.22;;;21.80;65.30;;;;;;5071436;28;20032;-63
2022/09/02 03:10:55;;;;;;;5.43;4.57;;;21.80;65.20;;;;;;5071328;28;20032;-63
2022/09/02 03:13:23;;;;;;;7.95;4.63;;;21.80;65.20;;;;;;5052215;28;20078;-62
2022/09/02 03:15:49;;;;;;;9.10;5.00;;;21.80;65.20;;;;;;5055878;28;20098;-63
2022/09/02 03:18:14;;;;;;;8.15;5.03;;;21.80;65.30;;;;;;5051205;28;20479;-63
2022/09/02 03:20:40;;;;;;;9.90;4.82;;;21.80;65.30;;;;;;5067566;28;20135;-63
2022/09/02 03:23:06;;;;;;;7.47;4.93;;;;;;;;;;5036220;28;20074;-64
2022/09/02 03:25:33;;;;;;;7.38;4.72;;;;;;;;;;5071030;28;20530;-64
2022/09/02 03:27:59;;;;;;;12.05;5.60;;;;;;;;;;5070802;28;20020;-63
2022/09/02 03:30:28;;;;;;;6.72;5.47;;;;;;;;;;5053014;28;20028;-63
2022/09/02 03:32:55;;;;;;;10.18;5.82;;;;;;;;;;5070528;28;20032;-64
2022/09/02 03:35:21;;;;;;;11.13;5.55;;;;;;;;;;5070924;28;20027;-63
2022/09/02 03:37:48;;;;;;;6.22;5.45;;;;;;;;;;5051184;28;20033;-64
2022/09/02 03:40:15;;;;;;;6.77;5.27;;;;;;;;;;5064900;28;20498;-64
2022/09/02 03:42:42;;;;;;;7.82;4.93;;;;;;;;;;5070451;28;20055;-63
2022/09/02 03:45:09;;;;;;;11.15;5.53;;;;;;;;;;5071026;28;20025;-63
2022/09/02 03:47:36;;;;;;;12.23;5.10;;;;;;;;;;5070453;28;20032;-63
2022/09/02 03:50:02;;;;;;;8.02;6.25;;;;;;;;;;5070659;28;20399;-63
2022/09/02 03:52:28;;;;;;;8.02;5.88;;;;;;;;;;5052606;28;20024;-63
2022/09/02 03:54:55;;;;;;;13.77;5.90;;;;;;;;;;5070849;28;20402;-54
2022/09/02 03:57:24;;;;;;;10.05;6.15;;;;;;;;;;5072063;28;20492;-64
2022/09/02 03:59:50;;;;;;;21.38;5.88;;;;;;;;;;5056301;28;20493;-64
2022/09/02 04:02:17;;;;;;;8.00;5.53;;;;;;;;;;5067595;28;20029;-64
2022/09/02 04:04:43;;;;;;;7.78;5.72;;;;;;;;;;5055206;28;20441;-64
2022/09/02 04:07:09;;;;;;;6.37;5.77;;;;;;;;;;5054500;28;20029;-64
2022/09/02 04:09:35;;;;;;;8.43;5.65;;;;;;;;;;5054301;28;20025;-64
2022/09/02 04:12:02;;;;;;;10.95;6.63;;;;;;;;;;5054111;28;20402;-65
2022/09/02 04:14:28;;;;;;;10.68;6.40;;;;;;;;;;5052987;28;20486;-65
2022/09/02 04:16:54;;;;;;;14.93;6.95;;;;;;;;;;5054338;28;20056;-65
2022/09/02 04:19:20;;;;;;;8.35;5.30;;;;;;;;;;5054354;28;20032;-64
2022/09/02 04:21:46;;;;;;;9.82;6.10;;;;;;;;;;5053994;28;20022;-65
2022/09/02 04:24:12;;;;;;;14.77;6.68;;;;;;;;;;5054201;28;20025;-65
2022/09/02 04:26:38;;;;;;;6.50;5.90;;;;;;;;;;5054057;28;20399;-64
2022/09/02 04:29:06;;;;;;;12.00;6.55;;;;;;;;;;5054047;28;20037;-64
2022/09/02 04:31:32;;;;;;;13.43;5.93;;;;;;;;;;5053885;28;20120;-64
2022/09/02 04:33:59;;;;;;;11.57;6.83;;;;;;;;;;5054289;28;20398;-64
2022/09/02 04:36:25;;;;;;;11.60;6.88;;;;;;;;;;5053904;28;20372;-64
2022/09/02 04:38:52;;;;;;;11.57;6.70;;;;;;;;;;5053735;28;20033;-64
2022/09/02 04:41:18;;;;;;;;;;;;;;;;;;5054110;28;20032;-65
2022/09/02 04:43:44;;;;;;;8.88;6.57;;;;;;;;;;5053782;28;19908;-65
2022/09/02 04:46:12;;;;;;;7.90;6.57;;;;;;;;;;5052542;28;20029;-64
2022/09/02 04:48:38;;;;;;;12.32;6.50;;;;;;;;;;5053934;28;20059;-63
2022/09/02 04:51:09;;;;;;;12.98;6.55;;;;;;;;;;5053563;28;20033;-64
2022/09/02 04:53:36;;;;;;;10.52;6.80;;;;;;;;;;5053624;28;20063;-64
2022/09/02 04:56:09;;;;;;;11.85;6.20;;;;;;;;;;5053476;28;20025;-65
2022/09/02 04:58:35;;;;;;;9.05;6.50;;;;;;;;;;5052220;28;20029;-65
2022/09/02 05:01:14;;;;;;;11.18;7.05;;;21.10;74.50;;;;;;5053305;28;20021;-64
2022/09/02 05:03:41;;;;;;;9.77;6.68;;;21.10;68.40;;;;;;5053448;28;20021;-65
2022/09/02 05:06:09;;;;;;;15.88;7.22;;;21.10;68.30;;;;;;5053395;28;20025;-64
2022/09/02 05:08:37;;;;;;;10.10;6.57;;;21.00;68.90;;;;;;5052274;28;20060;-64
2022/09/02 05:11:07;;;;;;;11.18;7.20;;;;;;;;;;5053189;28;20029;-65
2022/09/02 05:13:34;;;;;;;10.45;7.13;;;;;;;;;;5053360;28;20438;-65
2022/09/02 05:16:00;;;;;;;7.68;6.30;;;;;;;;;;5053188;28;20025;-65
2022/09/02 05:18:26;;;;;;;8.25;7.30;;;;;;;;;;5053164;28;20059;-65
2022/09/02 05:20:52;;;;;;;12.48;7.03;;;;;;;;;;5052825;28;20025;-65
2022/09/02 05:23:18;;;;;;;9.73;6.40;;;;;;;;;;5051760;28;20025;-63
2022/09/02 05:25:44;;;;;;;11.43;7.50;;;;;;;;;;5051753;28;20040;-64
2022/09/02 05:28:11;;;;;;;13.67;7.43;;;;;;;;;;5051900;28;20042;-64
2022/09/02 05:30:39;;;;;;;12.02;6.90;;;21.00;68.30;;;;;;5052742;28;20475;-64
2022/09/02 05:33:05;;;;;;;9.85;6.40;;;21.10;69.10;;;;;;5052907;28;20029;-64
2022/09/02 05:35:32;;;;;;;16.10;7.28;;;21.10;69.30;;;;;;5052841;28;20458;-64
2022/09/02 05:37:58;;;;;;;8.27;6.82;;;21.10;69.00;;;;;;5052902;28;20021;-65
2022/09/02 05:40:25;;;;;;;12.68;7.00;;;21.20;68.80;;;;;;5052580;28;20057;-64
2022/09/02 05:42:50;;;;;;;8.75;6.82;;;21.30;68.60;;;;;;5052468;28;20021;-64
2022/09/02 05:45:17;;;;;;;10.10;5.97;;;21.30;68.60;;;;;;5052710;28;20029;-64
2022/09/02 05:47:43;;;;;;;13.75;6.78;;;21.30;68.70;;;;;;5052890;28;20384;-64
2022/09/02 05:50:09;;;;;;;10.90;6.65;;;;;;;;;;5052537;28;20070;-64
2022/09/02 05:52:35;;;;;;;12.13;6.65;;;;;;;;;;5052148;28;20029;-64
2022/09/02 05:55:02;;;;;;;11.90;6.60;;;21.40;68.80;;;;;;5052402;28;20083;-64
2022/09/02 05:57:28;;;;;;;19.02;6.10;;;21.60;68.30;;;;;;5052414;28;20093;-64
2022/09/02 05:59:55;;;;;;;9.95;5.95;;;21.70;68.30;;;;;;5052289;28;20274;-64
2022/09/02 06:02:22;;;;;;;;;;;21.80;68.00;;;;;;5052551;28;20097;-64
2022/09/02 06:04:50;;;;;;;11.82;5.35;;;21.80;67.70;;;;;;5052554;28;20425;-63
2022/09/02 06:07:18;;;;;;;9.52;5.40;;;21.80;67.60;;;;;;5052135;28;20494;-63
2022/09/02 06:09:44;;;;;;;8.95;5.57;;;21.90;67.20;;;;;;5052042;28;20036;-63
2022/09/02 06:12:11;;;;;;;8.43;5.35;;;22.00;67.00;;;;;;5051985;28;20096;-63
2022/09/02 06:14:37;;;;;;;6.88;5.70;;;22.10;66.80;;;;;;5052213;28;20021;-63
2022/09/02 06:17:04;;;;;;;8.48;5.95;;;22.20;66.40;;;;;;5034565;28;20391;-64
2022/09/02 06:19:31;;;;;;;8.65;5.18;;;22.20;66.50;;;;;;5051829;28;20032;-64
2022/09/02 06:21:57;;;;;;;;;;;22.40;66.30;;;;;;5052679;28;20394;-64
2022/09/02 06:24:24;;;;;;;9.60;5.40;;;22.50;66.10;;;;;;5052065;28;20294;-65
2022/09/02 06:26:52;;;;;;;;;;;;;;;;;;5052467;28;20029;-65
2022/09/02 06:29:18;;;;;;;8.35;5.00;;;;;;;;;;5051819;28;19950;-64
2022/09/02 06:31:45;;;;;;;9.95;4.22;;;;;;;;;;5051738;28;20112;-65
2022/09/02 06:34:12;;;;;;;14.20;5.03;;;;;;;;;;5051840;28;20530;-64
2022/09/02 06:36:39;;;;;;;7.05;4.63;;;;;;;;;;5051941;28;20108;-64
2022/09/02 06:39:05;;;;;;;8.55;4.80;;;;;;;;;;5051696;28;20041;-64
2022/09/02 06:41:32;;;;;;;5.75;3.75;;;;;;;;;;5051653;28;20021;-64
2022/09/02 06:44:02;;;;;;;9.88;4.50;;;22.50;66.20;;;;;;5051754;28;20048;-64
2022/09/02 06:46:32;;;;;;;8.55;3.80;;;23.00;62.40;;;;;;5051878;28;20092;-64
2022/09/02 06:48:58;;;;;;;7.30;4.10;;;23.00;68.40;;;;;;5051809;28;21000;-64
2022/09/02 06:51:31;;;;;;;12.88;4.75;;;22.80;62.50;;;;;;5051464;28;20089;-65
2022/09/02 06:53:57;;;;;;;9.73;4.10;;;;;;;;;;5051647;28;20032;-64
2022/09/02 06:56:25;;;;;;;7.50;3.38;;;22.80;62.70;;;;;;5051595;28;20026;-64
2022/09/02 06:58:51;;;;;;;6.80;3.83;;;22.70;67.40;;;;;;5051418;28;20028;-65
2022/09/02 07:01:25;;;;;;;6.93;4.57;;;22.60;62.00;;;;;;5051457;28;20510;-64
2022/09/02 07:06:37;;;;;;;5.82;3.78;;;;;;;;;;5051759;28;20040;-64
2022/09/02 07:09:03;;;;;;;;;;;;;;;;;;5051771;28;20082;-64
2022/09/02 07:11:29;;;;;;;9.02;4.35;;;;;;;;;;5051388;28;19999;-65
2022/09/02 07:13:54;;;;;;;6.35;4.03;;;22.90;91.90;;;;;;5051492;28;20108;-63
2022/09/02 07:16:20;;;;;;;12.48;3.97;;;;;;;;;;5051568;28;20163;-63
2022/09/02 07:18:46;;;;;;;5.67;3.60;;;22.90;88.10;;;;;;5051356;28;20536;-64
2022/09/02 07:21:13;;;;;;;6.57;3.38;;;26.50;62.20;;;;;;5051082;28;20017;-63
2022/09/02 07:23:39;;;;;;;9.43;3.42;;;;;;;;;;5033559;28;20115;-63
2022/09/02 07:26:14;;;;;;;9.15;3.35;;;23.20;88.40;;;;;;5051371;28;20028;-63
2022/09/02 07:28:41;;;;;;;10.85;3.30;;;23.30;74.60;;;;;;5051238;28;20450;-63
2022/09/02 07:31:07;;;;;;;;;;;;;;;;;;5052182;28;20025;-60
2022/09/02 07:33:35;;;;;;;13.85;3.35;;;;;;;;;;5055139;28;19912;-60
2022/09/02 07:36:03;;;;;;;6.70;2.78;;;;;;;;;;5054913;28;20021;-60
2022/09/02 07:38:29;;;;;;;6.43;3.08;;;;;;;;;;5053745;28;20067;-59
2022/09/02 07:40:55;;;;;;;9.00;3.00;;;;;;;;;;5054640;28;20079;-60
2022/09/02 07:43:21;;;;;;;4.80;3.23;;;;;;;;;;5055015;28;20013;-60
2022/09/02 07:45:49;;;;;;;7.77;2.53;;;;;;;;;;5054908;28;20100;-59
2022/09/02 07:48:15;;;;;;;8.18;2.72;;;;;;;;;;5054825;28;20025;-61
2022/09/02 07:50:42;;;;;;;4.70;2.37;;;;;;;;;;5054464;28;20029;-59
2022/09/02 07:53:08;;;;;;;7.10;2.95;;;;;;;;;;5054811;28;20026;-61
2022/09/02 07:55:36;;;;;;;4.30;2.20;;;;;;;;;;5054645;28;20441;-60
2022/09/02 07:58:03;;;;;;;5.22;2.70;;;;;;;;;;5054927;28;20384;-59
2022/09/02 08:00:29;;;;;;;5.78;2.88;;;;;;;;;;5054384;28;20025;-60
2022/09/02 08:02:55;;;;;;;6.67;2.07;;;;;;;;;;5054507;28;20021;-61
2022/09/02 08:05:21;;;;;;;7.67;2.20;;;;;;;;;;5054533;28;20738;-61
2022/09/02 08:07:47;;;;;;;6.03;2.60;;;;;;;;;;5054523;28;20570;-60
2022/09/02 08:10:15;;;;;;;5.65;2.30;;;;;;;;;;5054348;28;20267;-58
2022/09/02 08:12:43;;;;;;;2.60;2.15;;;;;;;;;;5054336;28;20505;-59
2022/09/02 08:15:09;;;;;;;3.90;2.05;;;;;;;;;;5054264;28;20115;-57
2022/09/02 08:17:36;;;;;;;10.75;2.35;;;;;;;;;;5054219;28;20029;-59
2022/09/02 08:20:02;;;;;;;8.57;2.20;;;;;;;;;;5054166;28;20380;-60
2022/09/02 08:22:33;;;;;;;4.55;2.90;;;;;;;;;;5054442;28;20391;-61
2022/09/02 08:25:00;;;;;;;2.60;2.13;;;;;;;;;;5054232;28;20432;-58
2022/09/02 08:27:26;;;;;;;3.73;2.23;;;;;;;;;;5054219;28;20090;-60
2022/09/02 08:29:52;;;;;;;3.80;2.65;;;;;;;;;;5054036;28;20100;-61
2022/09/02 08:32:18;;;;;;;3.88;1.90;;;;;;;;;;5053861;28;20079;-61
2022/09/02 08:34:45;;;;;;;4.85;2.65;;;;;;;;;;5053882;28;20398;-61
2022/09/02 08:37:11;;;;;;;3.17;2.47;;;;;;;;;;5053975;28;20025;-61
2022/09/02 08:39:37;;;;;;;4.50;1.73;;;;;;;;;;5054345;28;20495;-60
2022/09/02 08:42:18;;;;;;;5.57;2.55;;;;;;;;;;5053591;28;20302;-61
2022/09/02 08:44:44;;;;;;;4.25;2.47;;;;;;;;;;5053692;28;20036;-61
2022/09/02 08:47:15;;;;;;;4.28;1.85;;;;;;;;;;5053889;28;20059;-61
2022/09/02 08:49:47;;;;;;;3.30;2.17;;;;;;;;;;5053636;28;20032;-60
2022/09/02 08:52:18;;;;;;;3.90;2.08;;;;;;;;;;5053701;28;20497;-60
2022/09/02 08:54:57;;;;;;;4.60;1.95;;;;;;;;;;5052285;28;20480;-59
2022/09/02 08:57:25;;;;;;;27.25;3.97;;;;;;;;;;5053659;28;20540;-61
2022/09/02 08:59:52;;;;;;;2.83;1.90;;;;;;;;;;5053398;28;20033;-61
2022/09/02 09:02:26;;;;;;;5.93;1.85;;;;;;;;;;5052105;28;20625;-61
2022/09/02 09:05:02;;;;;;;2.88;2.00;;;;;;;;;;5053533;28;20021;-61
2022/09/02 09:07:58;;;;;;;3.22;2.20;;;;;;;;;;5053486;28;20049;-61
2022/09/02 09:10:33;;;;;;;5.13;2.13;;;;;;;;;;5044516;28;20037;-61
2022/09/02 09:12:59;;;;;;;2.70;1.90;;;;;;;;;;5053509;28;20021;-61
2022/09/02 09:15:48;;;;;;;3.90;2.07;;;;;;;;;;5053552;28;20037;-60
2022/09/02 09:18:20;;;;;;;5.72;2.70;;;;;;;;;;5035235;28;20445;-60
2022/09/02 09:20:47;;;;;;;9.85;2.30;;;;;;;;;;5052900;28;20066;-61
2022/09/02 09:23:32;;;;;;;4.28;2.20;;;;;;;;;;5053737;28;20029;-60
2022/09/02 09:26:06;;;;;;;5.53;2.22;;;;;;;;;;5053114;28;20017;-59
2022/09/02 09:28:39;;;;;;;5.22;2.78;;;;;;;;;;5053000;28;20040;-59
2022/09/02 09:31:05;;;;;;;4.15;2.40;;;;;;;;;;5052779;28;20395;-60
2022/09/02 09:33:32;;;;;;;6.57;1.92;;;;;;;;;;5051665;28;20061;-58
2022/09/02 09:35:58;;;;;;;9.52;2.65;;;;;;;;;;5051613;28;20025;-60
2022/09/02 09:38:29;;;;;;;5.28;2.30;;;;;;;;;;5051732;28;20399;-60
2022/09/02 09:41:14;;;;;;;4.70;2.35;;;;;;;;;;5052257;28;20024;-57
2022/09/02 09:43:40;;;;;;;3.13;2.15;;;;;;;;;;5052692;28;20364;-61
2022/09/02 09:46:25;;;;;;;3.03;1.83;;;;;;;;;;5051334;28;20029;-59
2022/09/02 09:48:51;;;;;;;3.95;2.20;;;;;;;;;;5052514;28;20423;-61
2022/09/02 09:51:17;;;;;;;3.85;1.85;;;;;;;;;;5052321;28;20032;-61
2022/09/02 09:53:44;;;;;;;5.22;1.95;;;;;;;;;;5052086;28;20033;-61
2022/09/02 09:56:13;;;;;;;5.65;2.28;;;;;;;;;;5052476;28;20021;-61
2022/09/02 09:58:39;;;;;;;5.40;3.05;;;;;;;;;;5052367;28;20032;-60
2022/09/02 10:01:11;;;;;;;7.57;2.53;;;;;;;;;;5052181;28;20025;-61
2022/09/02 10:03:40;;;;;;;6.72;2.45;;;;;;;;;;5051024;28;20029;-60
2022/09/02 10:06:23;;;;;;;7.03;2.65;;;;;;;;;;5050907;28;20114;-60
2022/09/02 10:08:59;;;;;;;4.43;2.20;;;;;;;;;;5052006;28;20032;-57
2022/09/02 10:11:29;;;;;;;3.30;1.80;;;;;;;;;;5056028;28;20028;-59
2022/09/02 10:13:59;;;;;;;5.32;2.05;;;;;;;;;;5070923;28;20398;-58
2022/09/02 10:16:42;;;;;;;4.13;1.67;;;;;;;;;;5055583;28;20523;-59
2022/09/02 10:19:11;;;;;;;3.22;2.33;;;;;;;;;;5070257;28;20028;-59
2022/09/02 10:21:49;;;;;;;4.10;2.20;;;;;;;;;;5052956;28;20024;-59
2022/09/02 10:24:18;;;;;;;4.43;2.30;;;;;;;;;;5058917;28;20026;-60
2022/09/02 10:26:49;;;;;;;8.25;2.63;;;;;;;;;;5070959;28;20510;-60
2022/09/02 10:29:34;;;;;;;3.90;2.42;;;;;;;;;;5071011;28;20498;-60
2022/09/02 10:32:19;;;;;;;3.75;2.20;;;;;;;;;;5071562;28;20064;-60
2022/09/02 10:35:10;;;;;;;2.20;2.00;;;;;;;;;;5070524;28;20047;-59
2022/09/02 10:37:46;;;;;;;5.07;2.38;;;;;;;;;;5053804;28;20025;-60
2022/09/02 10:40:20;;;;;;;5.68;2.17;;;;;;;;;;5071093;28;20029;-60
2022/09/02 10:42:53;;;;;;;5.10;2.08;;;;;;;;;;5071134;28;20425;-60
2022/09/02 10:45:45;;;;;;;5.65;1.90;;;;;;;;;;5053289;28;20050;-59
2022/09/02 10:48:12;;;;;;;3.78;2.10;;;;;;;;;;5071879;28;20058;-59
2022/09/02 10:50:46;;;;;;;6.72;2.17;;;;;;;;;;5069841;28;20066;-60
2022/09/02 10:53:21;;;;;;;5.15;2.53;;;;;;;;;;5071360;28;20032;-60
2022/09/02 10:55:48;;;;;;;6.88;2.50;;;;;;;;;;5053875;28;20028;-59
2022/09/02 10:58:19;;;;;;;4.35;2.05;;;;;;;;;;5070318;28;20514;-57
2022/09/02 11:00:49;;;;;;;8.82;2.20;;;;;;;;;;5070067;28;20429;-59
2022/09/02 11:03:19;;;;;;;3.92;2.03;;;;;;;;;;5070888;28;20027;-57
2022/09/02 11:05:54;;;;;;;5.05;2.13;;;;;;;;;;5070778;28;20020;-61
2022/09/02 11:08:26;;;;;;;2.28;1.98;;;;;;;;;;5054219;28;20533;-59
2022/09/02 11:10:58;;;;;;;3.05;2.13;;;;;;;;;;5074251;28;20027;-57
2022/09/02 11:13:28;;;;;;;4.15;1.77;;;;;;;;;;5056746;28;20059;-59
2022/09/02 11:15:55;;;;;;;4.68;2.80;;;;;;;;;;5075362;28;20032;-57
2022/09/02 11:18:29;;;;;;;5.45;2.70;;;;;;;;;;5074962;28;20526;-60
2022/09/02 11:21:08;;;;;;;7.65;2.42;;;;;;;;;;5074682;28;20078;-61
2022/09/02 11:23:35;;;;;;;3.63;2.25;;;;;;;;;;5075156;28;20430;-60
2022/09/02 11:26:04;;;;;;;4.93;2.33;;;;;;;;;;5075060;28;20028;-58
2022/09/02 11:28:49;;;;;;;5.95;2.50;;;;;;;;;;5074902;28;20028;-59
2022/09/02 11:31:15;;;;;;;4.25;2.95;;;;;;;;;;5055973;28;20395;-59
2022/09/02 11:33:50;;;;;;;5.07;2.53;;;;;;;;;;5074465;28;20032;-59
2022/09/02 11:36:17;;;;;;;5.13;2.80;;;;;;;;;;5074360;28;20487;-61
2022/09/02 11:38:43;;;;;;;4.75;2.25;;;;;;;;;;5074927;28;20367;-60
2022/09/02 11:41:27;;;;;;;6.90;2.00;;;;;;;;;;5056758;28;20035;-61
2022/09/02 11:44:13;;;;;;;9.05;2.53;;;;;;;;;;5074664;28;20068;-59
2022/09/02 11:46:40;;;;;;;4.47;1.85;;;;;;;;;;5074762;28;20422;-60
2022/09/02 11:49:06;;;;;;;;;;;;;;;;;;5075298;28;20025;-60
2022/09/02 11:51:39;;;;;;;4.75;2.17;;;;;;;;;;5074345;28;19954;-60
2022/09/02 11:54:07;;;;;;;2.60;1.98;;;;;;;;;;5073966;28;20502;-60
2022/09/02 11:56:38;;;;;;;7.90;2.42;;;;;;;;;;5074555;28;20021;-58
2022/09/02 11:59:05;;;;;;;4.75;2.38;;;;;;;;;;5073780;28;20064;-60
2022/09/02 12:01:39;;;;;;;6.13;2.58;;;;;;;;;;5073043;28;20032;-60
2022/09/02 12:04:11;;;;;;;5.15;2.20;;;;;;;;;;5073577;28;20061;-59
2022/09/02 12:06:58;;;;;;;6.90;1.95;;;;;;;;;;5055951;28;20494;-57
2022/09/02 12:09:44;;;;;;;4.47;1.88;;;;;;;;;;5073284;28;20055;-60
2022/09/02 12:12:30;;;;;;;3.25;1.77;;;;;;;;;;5069355;28;20082;-61
2022/09/02 12:14:56;;;;;;;2.30;1.60;;;;;;;;;;5069786;28;20387;-61
2022/09/02 12:17:36;;;;;;;3.42;1.85;;;;;;;;;;5073546;28;20031;-58
2022/09/02 12:20:03;;;;;;;2.03;1.75;;;;;;;;;;5054198;28;20067;-58
2022/09/02 12:22:37;;;;;;;3.95;1.75;;;;;;;;;;5070619;28;20027;-60
2022/09/02 12:25:03;;;;;;;3.58;2.25;;;;;;;;;;5074305;28;20082;-61
2022/09/02 12:27:33;;;;;;;5.25;2.00;;;;;;;;;;5073906;28;20024;-59
2022/09/02 12:29:59;;;;;;;8.60;3.40;;;;;;;;;;5073648;28;20025;-59
2022/09/02 12:32:44;;;;;;;6.78;1.90;;;;;;;;;;5073876;28;20032;-61
2022/09/02 12:35:12;;;;;;;9.15;2.08;;;;;;;;;;5073771;28;20028;-61
2022/09/02 12:37:52;;;;;;;5.15;1.80;;;;;;;;;;5073333;28;20024;-60
2022/09/02 12:40:23;;;;;;;4.75;2.00;;;;;;;;;;5071522;28;20021;-61
2022/09/02 12:42:50;;;;;;;5.55;1.70;;;;;;;;;;5053978;28;20028;-60
2022/09/02 12:45:23;;;;;;;5.53;2.30;;;;;;;;;;5073109;28;20060;-60
2022/09/02 12:48:08;;;;;;;7.32;1.85;;;;;;;;;;5072804;28;20063;-58
2022/09/02 12:50:44;;;;;;;4.07;2.03;;;;;;;;;;5055130;28;20486;-61
2022/09/02 12:53:31;;;;;;;4.75;1.88;;;;;;;;;;5073724;28;20031;-61
2022/09/02 12:56:03;;;;;;;4.95;2.30;;;;;;;;;;5073076;28;20032;-59
2022/09/02 12:58:34;;;;;;;4.00;1.80;;;;;;;;;;5072410;28;20574;-61
2022/09/02 13:01:00;;;;;;;3.30;1.50;;;;;;;;;;5053412;28;20028;-60
2022/09/02 13:03:44;;;;;;;4.18;1.70;;;;;;;;;;5072488;28;20422;-57
2022/09/02 13:06:29;;;;;;;1.77;1.67;;;;;;;;;;5068554;28;20063;-60
2022/09/02 13:09:14;;;;;;;7.40;2.10;;;;;;;;;;5053353;28;20112;-59
2022/09/02 13:11:45;;;;;;;5.88;2.30;;;;;;;;;;5062872;28;20024;-60
2022/09/02 13:14:12;;;;;;;4.38;2.10;;;;;;;;;;5073165;28;20082;-60
2022/09/02 13:16:38;;;;;;;;;;;;;;;;;;5073653;28;20439;-59
2022/09/02 13:19:15;;;;;;;3.10;1.83;;;;;;;;;;5073187;28;19911;-59
2022/09/02 13:21:44;;;;;;;3.78;1.65;;;;;;;;;;5071268;28;20462;-59
2022/09/02 13:24:28;;;;;;;3.78;1.60;;;;;;;;;;5062367;28;20021;-59
2022/09/02 13:27:10;;;;;;;4.57;1.48;;;;;;;;;;5053066;28;20029;-59
2022/09/02 13:29:55;;;;;;;3.42;1.73;;;;;;;;;;5069324;28;20103;-59
2022/09/02 13:32:29;;;;;;;1.83;1.45;;;;;;;;;;5072777;28;20105;-58
2022/09/02 13:34:57;;;;;;;2.13;1.60;;;;;;;;;;5054768;28;20036;-60
2022/09/02 13:37:32;;;;;;;3.55;1.60;;;;;;;;;;5072940;28;20021;-60
2022/09/02 13:40:00;;;;;;;5.93;1.92;;;29.10;44.40;;;;;;5041810;28;20033;-60
2022/09/02 13:42:28;;;;;;;3.03;1.20;;;38.10;31.00;;;;;;5054623;28;20025;-59
2022/09/02 13:45:13;;;;;;;6.82;1.75;;;38.40;30.30;;;;;;5045642;28;20027;-60
2022/09/02 13:48:00;;;;;;;1.17;1.08;;;39.20;29.60;;;;;;5053174;28;20395;-59
2022/09/02 13:50:27;;;;;;;2.58;1.20;;;;;;;;;;5052633;28;20018;-56
2022/09/02 13:52:55;;;;;;;5.18;1.90;;;;;;;;;;5052391;28;20036;-54
2022/09/02 13:55:21;;;;;;;7.32;1.80;;;;;;;;;;5052399;28;20494;-58
2022/09/02 13:57:58;;;;;;;2.15;1.30;;;;;;;;;;5040203;28;20024;-58
2022/09/02 14:00:36;;;;;;;2.85;1.42;;;;;;;;;;5070011;28;20125;-56
2022/09/02 14:03:06;;;;;;;4.65;1.48;;;;;;;;;;5060936;28;20510;-54
2022/09/02 14:05:34;;;;;;;9.45;1.92;;;;;;;;;;5034689;28;20520;-55
2022/09/02 14:08:02;;;;;;;5.40;1.85;;;;;;;;;;5069481;28;20471;-58
2022/09/02 14:10:30;;;;;;;6.50;1.48;;;;;;;;;;5054003;28;20056;-58
2022/09/02 14:12:57;;;;;;;4.22;1.45;;;;;;;;;;5072076;28;20020;-58
2022/09/02 14:15:25;;;;;;;7.90;1.70;;;;;;;;;;5072114;28;20024;-57
2022/09/02 14:18:09;;;;;;;5.55;1.20;;;;;;;;;;5072103;28;20023;-57
2022/09/02 14:20:37;;;;;;;4.47;1.73;;;;;;;;;;5051794;28;20028;-58
2022/09/02 14:23:03;;;;;;;2.75;1.45;;;;;;;;;;5035359;28;20479;-58
2022/09/02 14:25:36;;;;;;;1.55;1.13;;;;;;;;;;5071738;28;20063;-57
2022/09/02 14:28:08;;;;;;;3.13;1.90;;;;;;;;;;5070952;28;20075;-54